createdAt,value
2018-02-04T00:01:18.144Z,101527.63
2018-02-04T00:03:46.432Z,101522.64
2018-02-04T00:06:14.825Z,101528.12
2018-02-04T00:08:43.132Z,101529.79
2018-02-04T00:11:11.509Z,101541.87
2018-02-04T00:13:39.840Z,101543.42
2018-02-04T00:16:08.144Z,101544.23
2018-02-04T00:18:36.534Z,101548.39
2018-02-04T00:21:04.874Z,101556.03
2018-02-04T00:23:34.734Z,101561.08
2018-02-04T00:26:03.843Z,101563.66
2018-02-04T00:28:32.181Z,101551.94
2018-02-04T00:31:00.499Z,101561.30
2018-02-04T00:33:29.569Z,101564.03
2018-02-04T00:35:58.269Z,101564.64
2018-02-04T00:38:26.564Z,101559.45
2018-02-04T00:40:54.876Z,101569.05
2018-02-04T00:43:23.211Z,101568.95
2018-02-04T00:45:51.532Z,101569.72
2018-02-04T00:48:20.125Z,101572.58
2018-02-04T00:50:48.609Z,101568.42
2018-02-04T00:53:16.929Z,101575.98
2018-02-04T00:55:45.998Z,101580.71
2018-02-04T00:58:14.348Z,101578.56
2018-02-04T01:00:42.673Z,101589.20
2018-02-04T01:03:11.774Z,101584.62
2018-02-04T01:05:40.098Z,101592.38
2018-02-04T01:08:08.396Z,101597.52
2018-02-04T01:10:37.482Z,101602.61
2018-02-04T01:13:05.802Z,101600.53
2018-02-04T01:15:34.096Z,101606.93
2018-02-04T01:18:02.404Z,101607.28
2018-02-04T01:20:30.767Z,101618.25
2018-02-04T01:22:59.866Z,101613.05
2018-02-04T01:25:28.188Z,101616.74
2018-02-04T01:27:56.479Z,101614.29
2018-02-04T01:30:24.772Z,101617.98
2018-02-04T01:32:53.099Z,101625.22
2018-02-04T01:35:22.187Z,101626.81
2018-02-04T01:37:50.478Z,101630.58
2018-02-04T01:40:19.518Z,101629.67
2018-02-04T01:42:47.825Z,101630.23
2018-02-04T01:45:16.136Z,101634.83
2018-02-04T01:47:44.436Z,101640.86
2018-02-04T01:50:13.515Z,101641.84
2018-02-04T01:52:41.822Z,101642.47
2018-02-04T01:55:10.126Z,101650.65
2018-02-04T01:57:38.406Z,101648.64
2018-02-04T02:00:06.702Z,101657.55
2018-02-04T02:02:35.005Z,101654.14
2018-02-04T02:05:03.308Z,101659.77
2018-02-04T02:07:32.593Z,101661.38
2018-02-04T02:10:00.909Z,101660.89
2018-02-04T02:12:29.964Z,101664.02
2018-02-04T02:14:58.942Z,101665.34
2018-02-04T02:17:27.278Z,101670.14
2018-02-04T02:19:56.361Z,101673.13
2018-02-04T02:22:24.653Z,101675.16
2018-02-04T02:24:53.707Z,101674.67
2018-02-04T02:27:22.011Z,101677.31
2018-02-04T02:29:50.333Z,101688.19
2018-02-04T02:32:18.654Z,101681.45
2018-02-04T02:34:46.987Z,101685.00
2018-02-04T02:37:16.040Z,101685.77
2018-02-04T02:39:44.359Z,101682.66
2018-02-04T02:42:13.471Z,101684.47
2018-02-04T02:44:42.531Z,101686.80
2018-02-04T02:47:10.832Z,101691.13
2018-02-04T02:49:39.124Z,101697.13
2018-02-04T02:52:08.203Z,101699.59
2018-02-04T02:54:36.494Z,101703.42
2018-02-04T02:57:04.871Z,101699.33
2018-02-04T02:59:33.199Z,101709.42
2018-02-04T03:02:01.501Z,101718.04
2018-02-04T03:04:29.789Z,101718.88
2018-02-04T03:06:58.845Z,101718.94
2018-02-04T03:09:28.048Z,101722.70
2018-02-04T03:11:57.125Z,101735.23
2018-02-04T03:14:25.431Z,101734.67
2018-02-04T03:16:54.509Z,101734.26
2018-02-04T03:19:22.819Z,101745.81
2018-02-04T03:21:51.108Z,101742.09
2018-02-04T03:24:19.497Z,101753.86
2018-02-04T03:26:47.785Z,101758.59
2018-02-04T03:29:16.061Z,101765.55
2018-02-04T03:31:44.382Z,101775.51
2018-02-04T03:34:12.671Z,101774.27
2018-02-04T03:36:40.987Z,101778.77
2018-02-04T03:39:09.275Z,101778.08
2018-02-04T03:41:37.599Z,101786.84
2018-02-04T03:44:05.913Z,101784.77
2018-02-04T03:46:34.965Z,101791.09
2018-02-04T03:49:03.340Z,101788.73
2018-02-04T03:51:31.635Z,101800.91
2018-02-04T03:53:59.926Z,101809.05
2018-02-04T03:56:28.247Z,101803.62
2018-02-04T03:58:57.290Z,101816.42
2018-02-04T04:01:25.597Z,101817.95
2018-02-04T04:03:53.897Z,101818.94
2018-02-04T04:06:22.211Z,101828.61
2018-02-04T04:08:50.497Z,101834.03
2018-02-04T04:11:18.789Z,101834.98
2018-02-04T04:13:47.081Z,101843.76
2018-02-04T04:16:15.453Z,101845.30
2018-02-04T04:18:43.789Z,101848.77
2018-02-04T04:21:12.095Z,101853.14
2018-02-04T04:23:40.432Z,101854.18
2018-02-04T04:26:08.773Z,101857.59
2018-02-04T04:28:37.901Z,101861.14
2018-02-04T04:31:06.303Z,101869.20
2018-02-04T04:33:34.601Z,101868.59
2018-02-04T04:36:03.679Z,101881.19
2018-02-04T04:38:31.976Z,101888.64
2018-02-04T04:41:00.313Z,101895.80
2018-02-04T04:43:28.605Z,101894.25
2018-02-04T04:45:56.929Z,101901.41
2018-02-04T04:48:25.233Z,101898.88
2018-02-04T04:50:53.551Z,101910.90
2018-02-04T04:53:21.862Z,101913.32
2018-02-04T04:55:50.165Z,101908.78
2018-02-04T04:58:19.287Z,101907.30
2018-02-04T05:00:47.573Z,101914.20
2018-02-04T05:03:15.857Z,101917.97
2018-02-04T05:05:44.189Z,101918.67
2018-02-04T05:08:12.627Z,101922.16
2018-02-04T05:10:40.926Z,101917.58
2018-02-04T05:13:09.225Z,101916.47
2018-02-04T05:15:37.604Z,101918.47
2018-02-04T05:18:06.744Z,101925.10
2018-02-04T05:20:36.079Z,101921.48
2018-02-04T05:23:04.413Z,101929.55
2018-02-04T05:25:32.698Z,101935.10
2018-02-04T05:28:01.004Z,101934.48
2018-02-04T05:30:29.333Z,101945.16
2018-02-04T05:32:57.645Z,101952.05
2018-02-04T05:35:25.949Z,101953.56
2018-02-04T05:37:54.520Z,101962.75
2018-02-04T05:40:22.901Z,101965.40
2018-02-04T05:42:51.974Z,101966.45
2018-02-04T05:45:20.297Z,101968.64
2018-02-04T05:47:49.489Z,101976.31
2018-02-04T05:50:18.554Z,101976.63
2018-02-04T05:52:46.944Z,101980.53
2018-02-04T05:55:15.303Z,101989.37
2018-02-04T05:57:43.615Z,101989.44
2018-02-04T06:00:11.933Z,101994.89
2018-02-04T06:02:40.989Z,101995.99
2018-02-04T06:05:09.298Z,101994.31
2018-02-04T06:07:37.597Z,102001.22
2018-02-04T06:10:06.725Z,102006.09
2018-02-04T06:12:35.025Z,102000.80
2018-02-04T06:15:03.346Z,102018.41
2018-02-04T06:17:32.414Z,102022.31
2018-02-04T06:20:00.937Z,102025.66
2018-02-04T06:22:29.983Z,102027.11
2018-02-04T06:24:58.287Z,102030.47
2018-02-04T06:27:27.439Z,102042.72
2018-02-04T06:29:55.747Z,102046.08
2018-02-04T06:32:24.033Z,102047.88
2018-02-04T06:34:52.323Z,102062.72
2018-02-04T06:37:20.653Z,102070.72
2018-02-04T06:39:49.729Z,102070.72
2018-02-04T06:42:18.013Z,102088.14
2018-02-04T06:44:46.319Z,102080.98
2018-02-04T06:47:14.635Z,102088.34
2018-02-04T06:49:43.133Z,102093.02
2018-02-04T06:52:11.420Z,102097.49
2018-02-04T06:54:39.707Z,102093.14
2018-02-04T06:57:08.008Z,102091.04
2018-02-04T06:59:37.105Z,102086.65
2018-02-04T07:02:05.427Z,102089.59
2018-02-04T07:04:33.785Z,102090.00
2018-02-04T07:07:02.867Z,102094.17
2018-02-04T07:09:32.044Z,102098.59
2018-02-04T07:12:00.356Z,102094.76
2018-02-04T07:14:29.383Z,102103.72
2018-02-04T07:16:57.751Z,102114.14
2018-02-04T07:19:26.809Z,102114.06
2018-02-04T07:21:55.119Z,102114.03
2018-02-04T07:24:23.455Z,102118.30
2018-02-04T07:26:51.765Z,102125.07
2018-02-04T07:29:20.105Z,102126.71
2018-02-04T07:31:48.465Z,102121.94
2018-02-04T07:34:17.601Z,102119.11
2018-02-04T07:36:45.922Z,102122.36
2018-02-04T07:39:14.249Z,102133.00
2018-02-04T07:41:42.570Z,102138.23
2018-02-04T07:44:10.997Z,102145.69
2018-02-04T07:46:40.057Z,102154.45
2018-02-04T07:49:08.401Z,102153.13
2018-02-04T07:51:36.706Z,102151.69
2018-02-04T07:54:05.073Z,102160.81
2018-02-04T07:56:34.103Z,102160.04
2018-02-04T07:59:03.160Z,102163.27
2018-02-04T08:01:31.507Z,102167.95
2018-02-04T08:04:00.593Z,102172.09
2018-02-04T08:06:29.691Z,102174.48
2018-02-04T08:08:58.027Z,102170.52
2018-02-04T08:11:26.383Z,102171.71
2018-02-04T08:13:54.725Z,102181.27
2018-02-04T08:16:23.108Z,102173.88
2018-02-04T08:18:51.423Z,102182.94
2018-02-04T08:21:20.511Z,102176.13
2018-02-04T08:23:48.811Z,102181.48
2018-02-04T08:26:17.904Z,102187.69
2018-02-04T08:28:47.257Z,102191.50
2018-02-04T08:31:15.557Z,102188.66
2018-02-04T08:33:44.757Z,102187.40
2018-02-04T08:36:13.399Z,102190.66
2018-02-04T08:38:41.715Z,102205.64
2018-02-04T08:41:10.036Z,102213.29
2018-02-04T08:43:39.961Z,102215.42
2018-02-04T08:46:09.317Z,102215.09
2018-02-04T08:48:37.937Z,102209.81
2018-02-04T08:51:06.261Z,102208.38
2018-02-04T08:53:35.545Z,102219.92
2018-02-04T08:56:04.903Z,102228.63
2018-02-04T08:58:33.211Z,102229.41
2018-02-04T09:01:01.521Z,102235.28
2018-02-04T09:03:30.835Z,102239.52
2018-02-04T09:06:00.941Z,102238.00
2018-02-04T09:08:29.275Z,102242.27
2018-02-04T09:10:57.611Z,102233.20
2018-02-04T09:13:26.675Z,102234.34
2018-02-04T09:15:54.976Z,102249.19
2018-02-04T09:18:23.528Z,102256.01
2018-02-04T09:20:51.856Z,102260.34
2018-02-04T09:23:20.932Z,102261.05
2018-02-04T09:25:49.225Z,102275.14
2018-02-04T09:28:19.211Z,102284.84
2018-02-04T09:30:47.591Z,102276.34
2018-02-04T09:33:15.901Z,102286.39
2018-02-04T09:35:44.209Z,102303.07
2018-02-04T09:38:14.372Z,102300.88
2018-02-04T09:40:42.734Z,102309.55
2018-02-04T09:43:11.048Z,102306.69
2018-02-04T09:45:39.371Z,102309.48
2018-02-04T09:48:07.669Z,102321.30
2018-02-04T09:50:36.718Z,102333.69
2018-02-04T09:53:05.014Z,102339.47
2018-02-04T09:55:33.307Z,102336.49
2018-02-04T09:58:02.206Z,102343.38
2018-02-04T10:00:30.532Z,102342.98
2018-02-04T10:02:58.832Z,102339.88
2018-02-04T10:05:27.205Z,102368.98
2018-02-04T10:07:55.525Z,102366.69
2018-02-04T10:10:24.839Z,102351.30
2018-02-04T10:12:54.921Z,102354.10
2018-02-04T10:15:23.267Z,102365.52
2018-02-04T10:17:51.578Z,102356.95
2018-02-04T10:20:19.882Z,102365.48
2018-02-04T10:22:48.233Z,102369.72
2018-02-04T10:25:16.622Z,102380.80
2018-02-04T10:27:44.940Z,102386.34
2018-02-04T10:30:13.300Z,102390.86
2018-02-04T10:32:41.693Z,102387.33
2018-02-04T10:35:09.990Z,102406.35
2018-02-04T10:37:39.115Z,102394.67
2018-02-04T10:40:08.387Z,102403.52
2018-02-04T10:42:38.042Z,102411.47
2018-02-04T10:45:07.818Z,102408.84
2018-02-04T10:47:36.189Z,102403.37
2018-02-04T10:50:04.499Z,102404.52
2018-02-04T10:52:32.826Z,102408.18
2018-02-04T10:55:01.164Z,102420.50
2018-02-04T10:57:29.469Z,102416.19
2018-02-04T10:59:57.788Z,102420.87
2018-02-04T11:02:26.090Z,102424.15
2018-02-04T11:04:54.386Z,102430.46
2018-02-04T11:07:22.919Z,102426.17
2018-02-04T11:09:51.224Z,102432.31
2018-02-04T11:12:20.246Z,102443.83
2018-02-04T11:14:48.570Z,102439.59
2018-02-04T11:17:16.886Z,102456.63
2018-02-04T11:19:45.206Z,102459.52
2018-02-04T11:22:14.330Z,102450.89
2018-02-04T11:24:42.729Z,102460.33
2018-02-04T11:27:11.042Z,102463.34
2018-02-04T11:29:39.361Z,102462.59
2018-02-04T11:32:20.992Z,102459.08
2018-02-04T11:34:49.290Z,102465.58
2018-02-04T11:37:17.632Z,102468.20
2018-02-04T11:39:46.030Z,102470.66
2018-02-04T11:42:14.322Z,102463.43
2018-02-04T11:44:42.665Z,102469.53
2018-02-04T11:47:12.099Z,102464.05
2018-02-04T11:49:41.020Z,102469.70
2018-02-04T11:52:09.345Z,102474.36
2018-02-04T11:54:38.411Z,102479.45
2018-02-04T11:57:06.716Z,102475.56
2018-02-04T11:59:36.418Z,102470.54
2018-02-04T12:02:04.920Z,102478.64
2018-02-04T12:04:34.002Z,102476.20
2018-02-04T12:07:02.363Z,102477.28
2018-02-04T12:09:30.714Z,102489.30
2018-02-04T12:11:59.028Z,102486.16
2018-02-04T12:14:27.432Z,102481.20
2018-02-04T12:16:55.734Z,102481.47
2018-02-04T12:19:24.843Z,102491.75
2018-02-04T12:21:54.417Z,102493.83
2018-02-04T12:24:22.988Z,102490.06
2018-02-04T12:26:52.102Z,102492.45
2018-02-04T12:29:20.431Z,102497.48
2018-02-04T12:31:48.809Z,102497.69
2018-02-04T12:34:17.908Z,102504.59
2018-02-04T12:36:46.223Z,102504.28
2018-02-04T12:39:14.511Z,102504.17
2018-02-04T12:41:43.088Z,102510.12
2018-02-04T12:44:11.427Z,102509.28
2018-02-04T12:46:40.507Z,102499.65
2018-02-04T12:49:08.824Z,102501.43
2018-02-04T12:51:38.118Z,102505.76
2018-02-04T12:54:06.433Z,102501.98
2018-02-04T12:56:35.014Z,102504.71
2018-02-04T12:59:03.343Z,102504.36
2018-02-04T13:01:31.700Z,102504.02
2018-02-04T13:04:00.026Z,102519.36
2018-02-04T13:06:28.348Z,102507.45
2018-02-04T13:08:56.663Z,102508.88
2018-02-04T13:11:24.985Z,102498.00
2018-02-04T13:13:54.064Z,102506.61
2018-02-04T13:16:22.368Z,102515.03
2018-02-04T13:18:51.432Z,102510.20
2018-02-04T13:21:19.710Z,102513.41
2018-02-04T13:23:48.025Z,102520.06
2018-02-04T13:26:17.107Z,102519.44
2018-02-04T13:28:46.172Z,102518.53
2018-02-04T13:31:15.118Z,102530.50
2018-02-04T13:33:44.318Z,102529.83
2018-02-04T13:36:12.588Z,102541.87
2018-02-04T13:38:40.890Z,102538.74
2018-02-04T13:41:10.048Z,102538.73
2018-02-04T13:43:38.349Z,102543.29
2018-02-04T13:46:06.712Z,102553.20
2018-02-04T13:48:35.166Z,102549.77
2018-02-04T13:51:03.524Z,102558.80
2018-02-04T13:53:32.587Z,102556.58
2018-02-04T13:56:00.904Z,102558.63
2018-02-04T13:58:29.958Z,102564.99
2018-02-04T14:00:58.264Z,102561.14
2018-02-04T14:03:26.555Z,102569.11
2018-02-04T14:05:54.856Z,102566.21
2018-02-04T14:08:23.182Z,102563.36
2018-02-04T14:10:51.492Z,102570.25
2018-02-04T14:13:19.813Z,102565.71
2018-02-04T14:15:48.122Z,102572.63
2018-02-04T14:18:16.419Z,102570.02
2018-02-04T14:20:44.762Z,102574.64
2018-02-04T14:23:13.062Z,102571.83
2018-02-04T14:25:41.434Z,102576.83
2018-02-04T14:28:10.508Z,102576.81
2018-02-04T14:30:39.557Z,102591.67
2018-02-04T14:33:07.872Z,102587.96
2018-02-04T14:35:36.202Z,102586.73
2018-02-04T14:38:04.491Z,102593.81
2018-02-04T14:40:32.786Z,102596.76
2018-02-04T14:43:01.122Z,102596.10
2018-02-04T14:45:30.689Z,102598.00
2018-02-04T14:47:59.852Z,102594.48
2018-02-04T14:50:28.168Z,102599.11
2018-02-04T14:52:56.761Z,102606.97
2018-02-04T14:55:26.705Z,102608.80
2018-02-04T14:57:55.874Z,102609.23
2018-02-04T15:00:24.191Z,102613.69
2018-02-04T15:02:53.260Z,102620.69
2018-02-04T15:05:21.560Z,102612.25
2018-02-04T15:07:49.864Z,102614.95
2018-02-04T15:10:18.948Z,102621.59
2018-02-04T15:12:47.258Z,102622.57
2018-02-04T15:15:15.841Z,102624.50
2018-02-04T15:17:44.137Z,102622.45
2018-02-04T15:20:12.658Z,102621.80
2018-02-04T15:22:41.020Z,102628.42
2018-02-04T15:25:09.384Z,102637.02
2018-02-04T15:27:37.700Z,102632.77
2018-02-04T15:30:06.248Z,102631.31
2018-02-04T15:32:34.550Z,102630.53
2018-02-04T15:35:02.874Z,102635.53
2018-02-04T15:37:31.174Z,102633.30
2018-02-04T15:40:00.480Z,102638.55
2018-02-04T15:42:29.550Z,102641.41
2018-02-04T15:44:57.879Z,102656.59
2018-02-04T15:47:26.182Z,102658.34
2018-02-04T15:49:54.496Z,102660.87
2018-02-04T15:52:22.805Z,102658.97
2018-02-04T15:54:51.964Z,102666.08
2018-02-04T15:57:20.267Z,102668.59
2018-02-04T15:59:48.692Z,102664.59
2018-02-04T16:02:17.008Z,102665.31
2018-02-04T16:04:45.388Z,102672.51
2018-02-04T16:07:13.694Z,102674.67
2018-02-04T16:09:42.102Z,102677.23
2018-02-04T16:12:11.158Z,102684.81
2018-02-04T16:14:40.230Z,102684.95
2018-02-04T16:17:08.528Z,102688.84
2018-02-04T16:19:36.874Z,102688.93
2018-02-04T16:22:05.200Z,102681.59
2018-02-04T16:24:33.592Z,102688.67
2018-02-04T16:27:01.906Z,102697.30
2018-02-04T16:29:30.226Z,102700.87
2018-02-04T16:31:58.606Z,102707.02
2018-02-04T16:34:26.924Z,102703.77
2018-02-04T16:36:55.228Z,102714.09
2018-02-04T16:39:24.020Z,102702.17
2018-02-04T16:41:52.327Z,102714.57
2018-02-04T16:44:21.458Z,102704.34
2018-02-04T16:46:49.821Z,102714.19
2018-02-04T16:49:19.045Z,102716.49
2018-02-04T16:51:47.466Z,102716.31
2018-02-04T16:54:15.886Z,102716.31
2018-02-04T16:56:44.294Z,102724.59
2018-02-04T16:59:12.614Z,102722.63
2018-02-04T17:01:41.010Z,102727.80
2018-02-04T17:04:10.131Z,102730.50
2018-02-04T17:06:39.313Z,102734.17
2018-02-04T17:09:08.455Z,102732.42
2018-02-04T17:11:36.791Z,102734.62
2018-02-04T17:14:05.935Z,102735.31
2018-02-04T17:16:34.270Z,102740.27
2018-02-04T17:19:02.586Z,102740.27
2018-02-04T17:21:31.047Z,102748.02
2018-02-04T17:24:01.235Z,102749.83
2018-02-04T17:26:29.821Z,102737.55
2018-02-04T17:28:58.977Z,102752.59
2018-02-04T17:31:28.411Z,102754.23
2018-02-04T17:33:56.847Z,102756.23
2018-02-04T17:36:25.969Z,102762.02
2018-02-04T17:38:55.936Z,102760.16
2018-02-04T17:41:24.446Z,102765.24
2018-02-04T17:43:52.838Z,102758.37
2018-02-04T17:46:21.344Z,102772.92
2018-02-04T17:48:50.524Z,102770.76
2018-02-04T17:51:19.855Z,102760.36
2018-02-04T17:53:50.274Z,102765.84
2018-02-04T17:56:19.414Z,102769.70
2018-02-04T17:58:48.009Z,102770.82
2018-02-04T18:01:17.895Z,102777.20
2018-02-04T18:03:47.010Z,102776.84
2018-02-04T18:06:16.171Z,102776.66
2018-02-04T18:08:44.753Z,102789.41
2018-02-04T18:11:13.109Z,102797.30
2018-02-04T18:13:42.095Z,102793.63
2018-02-04T18:16:10.391Z,102795.86
2018-02-04T18:18:38.965Z,102797.06
2018-02-04T18:21:07.273Z,102805.32
2018-02-04T18:23:35.633Z,102813.02
2018-02-04T18:26:03.973Z,102815.42
2018-02-04T18:28:33.094Z,102822.52
2018-02-04T18:31:02.349Z,102826.27
2018-02-04T18:33:30.681Z,102826.50
2018-02-04T18:35:59.113Z,102825.12
2018-02-04T18:38:28.788Z,102829.84
2018-02-04T18:40:57.907Z,102831.50
2018-02-04T18:43:26.889Z,102821.02
2018-02-04T18:45:55.471Z,102825.00
2018-02-04T18:48:23.779Z,102832.80
2018-02-04T18:50:52.104Z,102835.39
2018-02-04T18:53:21.201Z,102832.94
2018-02-04T18:55:50.429Z,102835.47
2018-02-04T18:58:18.864Z,102839.92
2018-02-04T19:00:48.103Z,102835.11
2018-02-04T19:03:18.105Z,102831.39
2018-02-04T19:05:46.427Z,102832.91
2018-02-04T19:08:15.621Z,102838.53
2018-02-04T19:10:43.931Z,102835.19
2018-02-04T19:13:12.297Z,102833.48
2018-02-04T19:15:40.605Z,102828.84
2018-02-04T19:18:08.948Z,102843.66
2018-02-04T19:20:37.477Z,102844.08
2018-02-04T19:23:05.856Z,102853.29
2018-02-04T19:25:34.283Z,102845.33
2018-02-04T19:28:03.381Z,102854.56
2018-02-04T19:30:32.488Z,102853.89
2018-02-04T19:33:01.582Z,102863.58
2018-02-04T19:35:31.148Z,102859.50
2018-02-04T19:38:00.940Z,102852.34
2018-02-04T19:40:29.243Z,102855.52
2018-02-04T19:42:58.202Z,102854.97
2018-02-04T19:45:26.507Z,102842.06
2018-02-04T19:47:55.832Z,102861.75
2018-02-04T19:50:25.002Z,102859.11
2018-02-04T19:52:53.326Z,102861.55
2018-02-04T19:55:21.859Z,102864.26
2018-02-04T19:57:50.187Z,102866.42
2018-02-04T20:00:18.528Z,102869.92
2018-02-04T20:02:47.603Z,102871.13
2018-02-04T20:05:16.726Z,102881.13
2018-02-04T20:07:45.834Z,102874.88
2018-02-04T20:10:14.150Z,102876.11
2018-02-04T20:12:42.592Z,102872.25
2018-02-04T20:15:10.941Z,102875.21
2018-02-04T20:17:39.270Z,102869.55
2018-02-04T20:20:07.593Z,102879.86
2018-02-04T20:22:35.942Z,102873.66
2018-02-04T20:25:04.469Z,102880.81
2018-02-04T20:27:33.690Z,102880.59
2018-02-04T20:30:02.785Z,102882.59
2018-02-04T20:32:49.699Z,102880.14
2018-02-04T20:35:18.791Z,102884.54
2018-02-04T20:37:47.187Z,102890.00
2018-02-04T20:40:16.328Z,102884.81
2018-02-04T20:42:45.379Z,102874.25
2018-02-04T20:45:14.925Z,102892.20
2018-02-04T20:47:43.244Z,102879.07
2018-02-04T20:50:11.608Z,102885.21
2018-02-04T20:52:39.945Z,102888.45
2018-02-04T20:55:09.023Z,102883.07
2018-02-04T20:57:37.938Z,102881.80
2018-02-04T21:00:07.018Z,102884.51
2018-02-04T21:02:36.129Z,102891.07
2018-02-04T21:05:06.132Z,102885.58
2018-02-04T21:07:34.483Z,102887.80
2018-02-04T21:10:02.801Z,102890.14
2018-02-04T21:12:31.983Z,102888.81
2018-02-04T21:15:00.397Z,102868.91
2018-02-04T21:17:29.496Z,102885.69
2018-02-04T21:19:58.612Z,102898.88
2018-02-04T21:22:28.489Z,102888.45
2018-02-04T21:24:56.883Z,102902.36
2018-02-04T21:27:25.229Z,102891.30
2018-02-04T21:29:53.628Z,102891.09
2018-02-04T21:32:21.911Z,102890.73
2018-02-04T21:34:51.575Z,102896.87
2018-02-04T21:37:19.891Z,102897.83
2018-02-04T21:39:48.331Z,102902.38
2018-02-04T21:42:17.823Z,102911.11
2018-02-04T21:44:47.184Z,102909.73
2018-02-04T21:47:15.703Z,102914.19
2018-02-04T21:49:44.040Z,102909.59
2018-02-04T21:52:13.381Z,102912.07
2018-02-04T21:54:42.562Z,102915.67
2018-02-04T21:57:10.858Z,102921.87
2018-02-04T21:59:40.140Z,102928.12
2018-02-04T22:02:08.461Z,102925.10
2018-02-04T22:04:36.798Z,102923.83
2018-02-04T22:07:05.805Z,102925.05
2018-02-04T22:09:34.151Z,102927.73
2018-02-04T22:12:03.443Z,102921.91
2018-02-04T22:14:32.834Z,102926.05
2018-02-04T22:17:01.921Z,102919.09
2018-02-04T22:19:32.264Z,102930.92
2018-02-04T22:22:01.430Z,102926.05
2018-02-04T22:24:29.801Z,102929.91
2018-02-04T22:26:58.141Z,102924.13
2018-02-04T22:29:26.710Z,102928.47
2018-02-04T22:31:55.029Z,102929.90
2018-02-04T22:34:24.359Z,102922.13
2018-02-04T22:36:52.706Z,102934.88
2018-02-04T22:39:21.014Z,102931.92
2018-02-04T22:41:49.771Z,102941.02
2018-02-04T22:44:18.322Z,102930.80
2018-02-04T22:46:47.559Z,102931.70
2018-02-04T22:49:15.874Z,102934.94
2018-02-04T22:51:44.920Z,102937.90
2018-02-04T22:54:13.323Z,102934.41
2018-02-04T22:56:41.668Z,102935.73
2018-02-04T22:59:10.802Z,102945.78
2018-02-04T23:01:39.173Z,102943.78
2018-02-04T23:04:07.511Z,102938.28
2018-02-04T23:06:35.830Z,102945.37
2018-02-04T23:09:04.123Z,102949.19
2018-02-04T23:11:32.490Z,102942.88
2018-02-04T23:14:00.799Z,102940.14
2018-02-04T23:16:29.892Z,102938.76
2018-02-04T23:18:58.265Z,102941.77
2018-02-04T23:21:26.604Z,102942.14
2018-02-04T23:23:54.916Z,102939.55
2018-02-04T23:26:24.230Z,102949.08
2018-02-04T23:28:52.714Z,102943.58
2018-02-04T23:31:21.931Z,102955.17
2018-02-04T23:33:50.257Z,102955.59
2018-02-04T23:36:18.588Z,102954.90
2018-02-04T23:38:46.934Z,102953.72
2018-02-04T23:41:15.348Z,102952.40
2018-02-04T23:43:43.710Z,102949.81
2018-02-04T23:46:12.031Z,102958.43
2018-02-04T23:48:40.366Z,102949.45
2018-02-04T23:51:08.693Z,102956.38
2018-02-04T23:53:38.045Z,102962.46
2018-02-04T23:56:07.012Z,102958.80
2018-02-04T23:58:35.357Z,102958.70
